Time;durP1;ratioP1;P1;durP2;ratioP2;P2;SDS_P1;SDS_P2;PMS_P1;PMS_P2;Temp;Humidity;BMP_temperature;BMP_pressure;BME280_temperature;BME280_humidity;BME280_pressure;Samples;Min_cycle;Max_cycle;Signal;HPM_P1;HPM_P2
2022/04/30 00:01:22;;;;;;;7.25;3.85;;;6.50;99.90;;;;;;4973771;28;20043;-51
2022/04/30 00:03:47;;;;;;;5.75;2.88;;;6.50;99.90;;;;;;4974091;28;20465;-50
2022/04/30 00:06:13;;;;;;;7.25;3.50;;;6.40;99.90;;;;;;4973921;28;20042;-52
2022/04/30 00:08:38;;;;;;;11.07;4.32;;;6.40;99.90;;;;;;4956835;28;20057;-48
2022/04/30 00:11:07;;;;;;;9.70;4.00;;;6.40;99.90;;;;;;4973794;28;20039;-51
2022/04/30 00:13:32;;;;;;;7.90;3.55;;;6.40;99.90;;;;;;4974090;28;20046;-50
2022/04/30 00:15:59;;;;;;;9.95;4.15;;;6.30;99.90;;;;;;4956067;28;20502;-51
2022/04/30 00:18:25;;;;;;;7.72;3.78;;;6.30;99.90;;;;;;4973684;28;20110;-52
2022/04/30 00:20:51;;;;;;;9.18;3.90;;;6.20;99.90;;;;;;4956335;28;20042;-52
2022/04/30 00:23:19;;;;;;;7.65;4.22;;;6.20;99.90;;;;;;4973841;28;20042;-50
2022/04/30 00:25:53;;;;;;;8.30;3.70;;;6.10;99.90;;;;;;4973831;28;20551;-51
2022/04/30 00:28:21;;;;;;;8.05;3.85;;;6.10;99.90;;;;;;4973581;28;20472;-48
2022/04/30 00:30:48;;;;;;;8.50;3.83;;;6.10;99.90;;;;;;4972955;28;20134;-52
2022/04/30 00:33:14;;;;;;;7.50;4.35;;;6.10;99.90;;;;;;4973735;28;20117;-50
2022/04/30 00:35:40;;;;;;;9.25;3.67;;;6.10;99.90;;;;;;4973241;28;20134;-50
2022/04/30 00:38:06;;;;;;;7.97;4.10;;;6.00;99.90;;;;;;4973702;28;20504;-51
2022/04/30 00:40:32;;;;;;;7.53;4.00;;;6.00;99.90;;;;;;4972761;28;20128;-51
2022/04/30 00:42:58;;;;;;;6.95;3.65;;;6.00;99.90;;;;;;4973503;28;20043;-51
2022/04/30 00:45:24;;;;;;;9.00;3.88;;;5.90;99.90;;;;;;4972890;28;20145;-51
2022/04/30 00:47:50;;;;;;;7.25;3.70;;;5.90;99.90;;;;;;4973396;28;20050;-51
2022/04/30 00:50:16;;;;;;;8.85;4.95;;;5.90;99.90;;;;;;4973016;28;20074;-50
2022/04/30 00:52:46;;;;;;;8.00;4.63;;;5.80;99.90;;;;;;4973157;28;20074;-50
2022/04/30 00:55:13;;;;;;;7.95;4.32;;;5.80;99.90;;;;;;4973057;28;20038;-51
2022/04/30 00:57:43;;;;;;;8.25;3.78;;;5.80;99.90;;;;;;4955631;28;20050;-46
2022/04/30 01:00:10;;;;;;;9.52;3.70;;;5.80;99.90;;;;;;4972713;28;20086;-50
2022/04/30 01:02:36;;;;;;;8.70;5.07;;;5.80;99.90;;;;;;4972663;28;20109;-52
2022/04/30 01:05:02;;;;;;;7.75;3.80;;;5.70;99.90;;;;;;4972438;28;20043;-50
2022/04/30 01:07:30;;;;;;;9.18;4.18;;;5.70;99.90;;;;;;4972859;28;20499;-51
2022/04/30 01:09:56;;;;;;;8.15;4.38;;;5.70;99.90;;;;;;4972311;28;20101;-52
2022/04/30 01:12:23;;;;;;;8.88;3.88;;;5.70;99.90;;;;;;4955337;28;20042;-51
2022/04/30 01:14:51;;;;;;;7.00;4.40;;;5.60;99.90;;;;;;4972491;28;20149;-48
2022/04/30 01:17:17;;;;;;;11.32;4.30;;;5.60;99.90;;;;;;4972705;28;20492;-47
2022/04/30 01:19:43;;;;;;;9.82;4.28;;;5.60;99.90;;;;;;4959571;28;20506;-53
2022/04/30 01:22:22;;;;;;;9.45;4.75;;;5.60;99.90;;;;;;4972542;28;20054;-46
2022/04/30 01:24:57;;;;;;;8.20;3.75;;;5.60;99.90;;;;;;4955096;28;20113;-52
2022/04/30 01:27:28;;;;;;;10.48;4.70;;;5.50;99.90;;;;;;4972598;28;20039;-53
2022/04/30 01:29:55;;;;;;;6.43;3.50;;;5.50;99.90;;;;;;4972057;28;20542;-52
2022/04/30 01:38:04;;;;;;;11.30;4.82;;;5.40;99.90;;;;;;4954850;28;20054;-49
2022/04/30 01:40:31;;;;;;;10.07;4.88;;;5.40;99.90;;;;;;4971986;28;20065;-52
2022/04/30 01:42:59;;;;;;;9.32;4.65;;;5.40;99.90;;;;;;4972333;28;20043;-52
2022/04/30 01:45:26;;;;;;;9.23;4.60;;;5.40;99.90;;;;;;4972095;28;20081;-50
2022/04/30 01:47:53;;;;;;;9.68;5.22;;;5.30;99.90;;;;;;4972247;28;20035;-53
2022/04/30 01:50:18;;;;;;;6.40;4.00;;;5.30;99.90;;;;;;4972264;28;20118;-53
2022/04/30 01:52:44;;;;;;;8.52;4.60;;;5.30;99.90;;;;;;4971739;28;20130;-51
2022/04/30 01:55:10;;;;;;;7.00;4.35;;;5.20;99.90;;;;;;4971953;28;20468;-53
2022/04/30 01:57:39;;;;;;;7.60;4.18;;;5.20;99.90;;;;;;4971782;28;20117;-51
2022/04/30 02:00:05;;;;;;;11.95;5.03;;;5.20;99.90;;;;;;4971607;28;20461;-48
2022/04/30 02:02:37;;;;;;;8.35;4.50;;;5.20;99.90;;;;;;4971824;28;20074;-53
2022/04/30 02:05:07;;;;;;;9.43;5.50;;;5.20;99.90;;;;;;4971940;28;20526;-51
2022/04/30 02:07:37;;;;;;;8.40;4.63;;;5.10;99.90;;;;;;4971949;28;20046;-51
2022/04/30 02:10:06;;;;;;;8.43;4.63;;;5.10;99.90;;;;;;4971901;28;20113;-48
2022/04/30 02:12:33;;;;;;;5.78;3.72;;;5.10;99.90;;;;;;4971756;28;20353;-53
2022/04/30 02:14:59;;;;;;;8.73;4.70;;;5.10;99.90;;;;;;4971650;28;20039;-50
2022/04/30 02:17:28;;;;;;;8.90;5.03;;;5.10;99.90;;;;;;4971637;28;20408;-52
2022/04/30 02:22:48;;;;;;;9.05;4.10;;;5.10;99.90;;;;;;4971339;28;20059;-53
2022/04/30 02:25:15;;;;;;;11.48;4.95;;;5.10;99.90;;;;;;4971728;28;20117;-53
2022/04/30 02:27:43;;;;;;;7.28;4.55;;;5.10;99.90;;;;;;4941469;28;20049;-52
2022/04/30 02:30:11;;;;;;;9.32;4.45;;;5.10;99.90;;;;;;4971036;28;20117;-50
2022/04/30 02:32:50;;;;;;;8.93;4.15;;;5.10;99.90;;;;;;4971550;28;20053;-49
2022/04/30 02:35:19;;;;;;;8.50;4.28;;;5.10;99.90;;;;;;4971277;28;20488;-53
2022/04/30 02:37:48;;;;;;;14.27;4.82;;;5.10;99.90;;;;;;4971635;28;20483;-50
2022/04/30 02:40:17;;;;;;;7.13;4.47;;;5.10;99.90;;;;;;4971188;28;20050;-53
2022/04/30 02:42:44;;;;;;;7.45;3.75;;;5.10;99.90;;;;;;4970315;28;20554;-52
2022/04/30 02:45:14;;;;;;;9.05;4.88;;;5.10;99.90;;;;;;4971348;28;20046;-50
2022/04/30 02:47:42;;;;;;;8.30;4.85;;;5.10;99.90;;;;;;4971326;28;20046;-53
2022/04/30 02:50:11;;;;;;;7.65;4.30;;;5.10;99.90;;;;;;4971321;28;20031;-52
2022/04/30 02:52:37;;;;;;;8.20;4.60;;;5.10;99.90;;;;;;4971530;28;20515;-52
2022/04/30 02:55:04;;;;;;;9.73;4.45;;;5.10;99.90;;;;;;4970997;28;20121;-53
2022/04/30 03:00:39;;;;;;;7.13;4.18;;;5.10;99.90;;;;;;4971025;28;20050;-51
2022/04/30 03:03:10;;;;;;;7.72;3.38;;;5.10;99.90;;;;;;4971521;28;20113;-49
2022/04/30 03:05:40;;;;;;;8.43;4.38;;;5.10;99.90;;;;;;4957502;28;20400;-53
2022/04/30 03:08:20;;;;;;;9.38;5.20;;;5.10;99.90;;;;;;4958058;28;20531;-52
2022/04/30 03:10:48;;;;;;;6.82;3.97;;;5.10;99.90;;;;;;4975322;28;20090;-51
2022/04/30 03:13:14;;;;;;;8.40;4.47;;;5.10;99.90;;;;;;4945187;28;20087;-53
2022/04/30 03:15:43;;;;;;;11.15;5.18;;;5.20;99.90;;;;;;4974606;28;20519;-52
2022/04/30 03:23:38;;;;;;;9.35;4.85;;;5.20;99.90;;;;;;4974760;28;20050;-52
2022/04/30 03:26:09;;;;;;;10.57;4.97;;;5.20;99.90;;;;;;4974528;28;20074;-49
2022/04/30 03:28:38;;;;;;;8.20;4.68;;;5.20;99.90;;;;;;4974886;28;20039;-50
2022/04/30 03:31:21;;;;;;;7.45;4.25;;;5.20;99.90;;;;;;4972806;28;20522;-53
2022/04/30 03:33:48;;;;;;;7.30;3.90;;;5.20;99.90;;;;;;4974556;28;20051;-50
2022/04/30 03:36:15;;;;;;;7.22;3.95;;;5.20;99.90;;;;;;4974459;28;20046;-52
2022/04/30 03:38:41;;;;;;;10.57;4.15;;;5.20;99.90;;;;;;4971438;28;20130;-52
2022/04/30 03:41:07;;;;;;;11.65;4.50;;;5.20;99.90;;;;;;4970826;28;20039;-50
2022/04/30 03:43:33;;;;;;;9.00;4.85;;;5.20;99.90;;;;;;4957313;28;20038;-53
2022/04/30 03:45:58;;;;;;;7.95;3.67;;;5.20;99.90;;;;;;4974541;28;20041;-53
2022/04/30 03:48:25;;;;;;;9.32;4.40;;;5.20;99.90;;;;;;4974281;28;20086;-48
2022/04/30 03:50:52;;;;;;;6.70;3.80;;;5.20;99.90;;;;;;4974446;28;20046;-48
2022/04/30 03:53:17;;;;;;;9.15;5.00;;;5.20;99.90;;;;;;4956915;28;20046;-51
2022/04/30 03:55:43;;;;;;;7.45;3.70;;;5.20;99.90;;;;;;4974036;28;20039;-51
2022/04/30 03:58:09;;;;;;;9.82;4.63;;;5.30;99.90;;;;;;4974326;28;20050;-52
2022/04/30 04:00:35;;;;;;;7.70;4.05;;;5.30;99.90;;;;;;4973896;28;20118;-47
2022/04/30 04:03:01;;;;;;;7.90;4.00;;;5.30;99.90;;;;;;4973997;28;20440;-48
2022/04/30 04:05:28;;;;;;;8.75;3.92;;;5.30;99.90;;;;;;4973786;28;20037;-51
2022/04/30 04:07:56;;;;;;;8.13;4.20;;;5.30;99.90;;;;;;4973469;28;20050;-50
2022/04/30 04:10:22;;;;;;;7.15;3.38;;;5.40;99.90;;;;;;4973554;28;20038;-51
2022/04/30 04:12:48;;;;;;;8.98;5.05;;;5.30;99.90;;;;;;4973592;28;20049;-51
2022/04/30 04:17:57;;;;;;;7.20;3.97;;;5.40;99.90;;;;;;4973360;28;20074;-49
2022/04/30 04:20:26;;;;;;;7.57;3.88;;;5.50;99.90;;;;;;4973533;28;20038;-51
2022/04/30 04:22:53;;;;;;;11.80;4.78;;;5.50;99.90;;;;;;4972952;28;20511;-50
2022/04/30 04:28:04;;;;;;;9.40;4.95;;;5.50;99.90;;;;;;4973243;28;20125;-48
2022/04/30 04:30:31;;;;;;;7.45;4.57;;;5.60;99.90;;;;;;4973117;28;20053;-50
2022/04/30 04:32:57;;;;;;;6.53;4.10;;;5.60;99.90;;;;;;4972902;28;20070;-48
2022/04/30 04:35:24;;;;;;;8.13;4.35;;;5.60;99.90;;;;;;4973278;28;20427;-51
2022/04/30 04:37:50;;;;;;;8.15;4.20;;;5.60;99.90;;;;;;4956109;28;20169;-47
2022/04/30 04:40:17;;;;;;;8.35;4.25;;;5.60;99.90;;;;;;4973269;28;20046;-49
2022/04/30 04:42:43;;;;;;;10.48;5.03;;;5.60;99.90;;;;;;4955802;28;20125;-50
2022/04/30 04:45:10;;;;;;;8.30;4.35;;;5.60;99.90;;;;;;4972797;28;20034;-51
2022/04/30 04:47:41;;;;;;;7.85;4.85;;;5.70;99.90;;;;;;4973130;28;20126;-48
2022/04/30 04:50:12;;;;;;;9.52;5.03;;;5.70;99.90;;;;;;4972753;28;20041;-49
2022/04/30 04:52:41;;;;;;;9.32;5.55;;;5.70;99.90;;;;;;4955284;28;20051;-51
2022/04/30 04:55:08;;;;;;;9.77;5.32;;;5.70;99.90;;;;;;4972511;28;20045;-51
2022/04/30 04:57:34;;;;;;;8.00;4.70;;;5.80;99.90;;;;;;4955356;28;20058;-51
2022/04/30 04:59:59;;;;;;;10.32;6.15;;;5.90;99.90;;;;;;4972648;28;20202;-51
2022/04/30 05:02:25;;;;;;;10.23;5.80;;;5.90;99.90;;;;;;4947113;28;20049;-51
2022/04/30 05:04:51;;;;;;;11.88;6.00;;;6.00;99.90;;;;;;4972698;28;20042;-47
2022/04/30 05:07:17;;;;;;;9.20;5.75;;;6.10;99.90;;;;;;4972571;28;20035;-51
2022/04/30 05:09:43;;;;;;;12.88;5.63;;;6.20;99.90;;;;;;4972478;28;20093;-50
2022/04/30 05:12:09;;;;;;;8.85;4.90;;;6.30;99.90;;;;;;4972667;28;20491;-49
2022/04/30 05:14:35;;;;;;;10.32;5.40;;;6.30;99.90;;;;;;4972334;28;20102;-49
2022/04/30 05:17:02;;;;;;;11.70;6.00;;;6.40;99.90;;;;;;4972337;28;20054;-50
2022/04/30 05:19:27;;;;;;;12.05;5.45;;;6.40;99.90;;;;;;4972356;28;20092;-49
2022/04/30 05:21:53;;;;;;;10.85;6.53;;;6.50;99.90;;;;;;4972337;28;20051;-50
2022/04/30 05:24:19;;;;;;;7.03;4.85;;;6.60;99.90;;;;;;4954893;28;20134;-46
2022/04/30 05:26:44;;;;;;;12.10;5.72;;;6.60;99.90;;;;;;4971798;28;20181;-48
2022/04/30 05:29:10;;;;;;;9.57;5.90;;;6.70;99.90;;;;;;4971214;28;20114;-50
2022/04/30 05:31:36;;;;;;;9.20;5.85;;;6.70;99.90;;;;;;4961766;28;20063;-45
2022/04/30 05:34:02;;;;;;;7.63;3.92;;;6.80;99.90;;;;;;4972318;28;20058;-48
2022/04/30 05:36:27;;;;;;;10.93;5.90;;;6.90;99.90;;;;;;4938754;28;20055;-49
2022/04/30 05:38:53;;;;;;;9.25;5.13;;;6.90;99.90;;;;;;4971930;28;20050;-50
2022/04/30 05:41:19;;;;;;;13.30;5.47;;;7.00;99.90;;;;;;4971810;28;20405;-51
2022/04/30 05:43:44;;;;;;;8.02;4.53;;;7.00;99.90;;;;;;4971992;28;20373;-51
2022/04/30 05:46:13;;;;;;;7.07;4.20;;;7.10;99.90;;;;;;4972060;28;20047;-51
2022/04/30 05:48:40;;;;;;;8.10;4.50;;;7.20;99.90;;;;;;4972210;28;20035;-50
2022/04/30 05:51:05;;;;;;;8.80;4.53;;;7.20;99.90;;;;;;4972026;28;20484;-49
2022/04/30 05:53:31;;;;;;;7.90;5.20;;;7.30;99.90;;;;;;4971816;28;20126;-44
2022/04/30 05:55:57;;;;;;;8.20;4.68;;;7.40;99.90;;;;;;4971589;28;20045;-51
2022/04/30 05:58:23;;;;;;;8.20;4.68;;;7.50;99.90;;;;;;4954309;28;20046;-48
2022/04/30 06:00:48;;;;;;;9.48;4.45;;;7.50;99.90;;;;;;4971566;28;20035;-49
2022/04/30 06:03:14;;;;;;;9.60;4.65;;;7.70;99.90;;;;;;4954075;28;20042;-51
2022/04/30 06:05:40;;;;;;;10.38;4.55;;;7.80;99.90;;;;;;4971403;28;20135;-49
2022/04/30 06:08:06;;;;;;;9.70;4.75;;;7.80;99.90;;;;;;4971409;28;20046;-50
2022/04/30 06:10:32;;;;;;;7.65;4.55;;;7.80;99.90;;;;;;4954104;28;20122;-47
2022/04/30 06:12:58;;;;;;;7.40;3.97;;;7.90;99.90;;;;;;4954063;28;20129;-49
2022/04/30 06:15:24;;;;;;;7.68;4.18;;;7.90;99.90;;;;;;4971519;28;20039;-50
2022/04/30 06:17:49;;;;;;;9.27;4.55;;;8.00;99.90;;;;;;4971484;28;20483;-51
2022/04/30 06:20:15;;;;;;;8.85;4.80;;;8.00;99.90;;;;;;4971526;28;20095;-50
2022/04/30 06:22:41;;;;;;;7.47;3.83;;;8.10;99.90;;;;;;4971420;28;20039;-51
2022/04/30 06:25:07;;;;;;;13.00;5.53;;;8.20;99.90;;;;;;4971456;28;20078;-49
2022/04/30 06:27:33;;;;;;;9.95;4.47;;;8.20;99.90;;;;;;4971322;28;20122;-47
2022/04/30 06:29:59;;;;;;;9.30;4.22;;;8.30;99.90;;;;;;4970987;28;20129;-51
2022/04/30 06:32:26;;;;;;;7.13;4.07;;;8.40;99.90;;;;;;4971111;28;20169;-50
2022/04/30 06:34:51;;;;;;;7.63;4.15;;;8.50;99.90;;;;;;4971386;28;20134;-49
2022/04/30 06:37:17;;;;;;;7.35;4.57;;;8.60;99.90;;;;;;4971098;28;20523;-50
2022/04/30 06:39:46;;;;;;;7.47;4.18;;;8.60;99.90;;;;;;4970853;28;20046;-51
2022/04/30 06:42:12;;;;;;;10.27;3.97;;;8.70;99.90;;;;;;4971218;28;20139;-49
2022/04/30 06:44:37;;;;;;;7.47;3.50;;;8.80;99.90;;;;;;4971019;28;20113;-51
2022/04/30 06:47:03;;;;;;;7.80;4.53;;;8.90;99.90;;;;;;4971471;28;20035;-48
2022/04/30 06:49:29;;;;;;;8.52;3.88;;;8.90;99.90;;;;;;4953966;28;20118;-51
2022/04/30 06:51:55;;;;;;;8.63;4.30;;;9.00;99.90;;;;;;4971470;28;20508;-50
2022/04/30 06:57:08;;;;;;;9.52;4.93;;;9.20;99.90;;;;;;4971411;28;20102;-47
2022/04/30 06:59:39;;;;;;;8.60;4.40;;;9.20;99.90;;;;;;4970929;28;20122;-47
2022/04/30 07:02:12;;;;;;;11.57;4.40;;;9.30;99.90;;;;;;4953570;28;20065;-48
2022/04/30 07:04:39;;;;;;;8.52;4.95;;;9.40;99.90;;;;;;4971014;28;20445;-50
2022/04/30 07:07:05;;;;;;;9.13;4.35;;;9.50;99.90;;;;;;4971365;28;20054;-51
2022/04/30 07:09:33;;;;;;;6.70;4.47;;;9.50;99.90;;;;;;4953564;28;20047;-51
2022/04/30 07:12:05;;;;;;;9.13;4.35;;;9.50;99.90;;;;;;4971114;28;20492;-49
2022/04/30 07:14:36;;;;;;;7.07;4.00;;;9.60;99.90;;;;;;4970605;28;20427;-51
2022/04/30 07:17:06;;;;;;;8.60;3.92;;;9.70;99.90;;;;;;4970979;28;20043;-51
2022/04/30 07:19:32;;;;;;;6.35;4.35;;;9.90;99.90;;;;;;4970746;28;20051;-49
2022/04/30 07:21:58;;;;;;;6.68;4.45;;;10.10;99.90;;;;;;4970877;28;20049;-49
2022/04/30 07:24:24;;;;;;;12.90;4.82;;;10.30;99.90;;;;;;4970669;28;20051;-48
2022/04/30 07:26:49;;;;;;;9.65;4.93;;;10.30;99.90;;;;;;4954014;28;20043;-51
2022/04/30 07:29:15;;;;;;;13.82;4.63;;;10.40;99.90;;;;;;4971217;28;20199;-51
2022/04/30 07:31:41;;;;;;;9.05;4.45;;;10.40;99.90;;;;;;4971008;28;20209;-51
2022/04/30 07:34:09;;;;;;;9.05;5.03;;;10.50;99.90;;;;;;4970714;28;20116;-48
2022/04/30 07:36:35;;;;;;;8.25;4.88;;;10.60;99.90;;;;;;4953554;28;20400;-48
2022/04/30 07:39:00;;;;;;;9.80;4.80;;;10.60;99.90;;;;;;4970764;28;20042;-50
2022/04/30 07:41:26;;;;;;;12.13;5.75;;;10.60;99.90;;;;;;4970866;28;20135;-51
2022/04/30 07:43:51;;;;;;;8.50;4.88;;;10.60;99.90;;;;;;4970843;28;20074;-48
2022/04/30 07:46:17;;;;;;;7.55;4.63;;;10.60;99.90;;;;;;4971095;28;20374;-48
2022/04/30 07:48:43;;;;;;;8.60;4.55;;;10.60;99.90;;;;;;4970589;28;20404;-48
2022/04/30 07:51:14;;;;;;;9.27;5.25;;;10.60;99.90;;;;;;4971528;28;20047;-52
2022/04/30 07:53:41;;;;;;;10.05;4.50;;;10.60;99.90;;;;;;4956914;28;20043;-51
2022/04/30 07:56:08;;;;;;;7.78;4.78;;;10.60;99.90;;;;;;4974033;28;20039;-48
2022/04/30 07:58:33;;;;;;;8.18;4.53;;;10.60;99.90;;;;;;4974451;28;20042;-50
2022/04/30 08:00:59;;;;;;;7.45;4.75;;;10.70;99.90;;;;;;4973374;28;20038;-50
2022/04/30 08:03:25;;;;;;;12.95;5.03;;;10.70;99.90;;;;;;4973682;28;20049;-51
2022/04/30 08:05:50;;;;;;;8.38;5.10;;;10.80;99.90;;;;;;4973616;28;20468;-52
2022/04/30 08:08:16;;;;;;;9.52;5.28;;;10.90;99.90;;;;;;4956323;28;20620;-52
2022/04/30 08:10:42;;;;;;;7.55;5.00;;;11.10;99.90;;;;;;4973269;28;20504;-49
2022/04/30 08:13:08;;;;;;;12.00;5.20;;;11.20;99.90;;;;;;4956213;28;20046;-49
2022/04/30 08:15:34;;;;;;;9.90;5.53;;;11.40;99.90;;;;;;4973820;28;20460;-51
2022/04/30 08:18:00;;;;;;;8.65;5.20;;;11.60;99.90;;;;;;4973853;28;20046;-49
2022/04/30 08:20:25;;;;;;;8.10;4.78;;;11.90;99.90;;;;;;4973508;28;20062;-52
2022/04/30 08:22:51;;;;;;;7.70;4.80;;;12.10;99.90;;;;;;4973637;28;20484;-52
2022/04/30 08:25:17;;;;;;;7.65;4.47;;;12.30;99.90;;;;;;4973479;28;20128;-51
2022/04/30 08:27:43;;;;;;;8.20;4.90;;;12.40;99.90;;;;;;4973534;28;20042;-50
2022/04/30 08:30:10;;;;;;;6.20;4.22;;;12.70;99.90;;;;;;4972969;28;20054;-52
2022/04/30 08:32:36;;;;;;;8.05;4.25;;;12.90;99.50;;;;;;4956123;28;20046;-52
2022/04/30 08:35:02;;;;;;;7.05;3.85;;;13.10;98.60;;;;;;4955934;28;20566;-51
2022/04/30 08:37:29;;;;;;;6.35;3.15;;;13.20;97.40;;;;;;4973444;28;20046;-52
2022/04/30 08:39:55;;;;;;;7.38;3.63;;;13.20;94.90;;;;;;4973257;28;20047;-51
2022/04/30 08:42:23;;;;;;;8.15;3.22;;;13.20;93.50;;;;;;4973556;28;20046;-51
2022/04/30 08:44:49;;;;;;;4.65;2.33;;;13.10;92.30;;;;;;4972890;28;20485;-52
2022/04/30 08:47:15;;;;;;;7.43;3.28;;;13.10;91.80;;;;;;4973419;28;20039;-52
2022/04/30 08:49:42;;;;;;;5.57;2.63;;;13.00;91.20;;;;;;4973111;28;20053;-53
2022/04/30 08:52:12;;;;;;;6.10;3.33;;;12.90;90.20;;;;;;4973029;28;20591;-52
2022/04/30 08:54:38;;;;;;;6.30;3.70;;;12.80;90.40;;;;;;4972942;28;20041;-52
2022/04/30 08:57:04;;;;;;;10.45;3.15;;;12.70;90.80;;;;;;4972797;28;20039;-50
2022/04/30 08:59:30;;;;;;;5.35;3.33;;;12.60;91.80;;;;;;4955286;28;20047;-51
2022/04/30 09:01:58;;;;;;;8.95;3.70;;;12.60;91.20;;;;;;4972428;28;20053;-51
2022/04/30 09:04:41;;;;;;;6.10;3.33;;;12.50;91.00;;;;;;4972724;28;20525;-49
2022/04/30 09:07:13;;;;;;;6.55;3.55;;;12.60;91.10;;;;;;4972851;28;20209;-52
2022/04/30 09:09:39;;;;;;;11.73;4.10;;;12.50;90.20;;;;;;4972575;28;20045;-52
2022/04/30 09:12:09;;;;;;;7.85;4.28;;;12.60;90.60;;;;;;4972624;28;20130;-50
2022/04/30 09:14:40;;;;;;;7.70;3.55;;;12.50;90.50;;;;;;4972505;28;20495;-53
2022/04/30 09:17:14;;;;;;;7.97;4.40;;;12.50;91.20;;;;;;4972648;28;20117;-52
2022/04/30 09:19:53;;;;;;;6.78;4.25;;;12.50;91.00;;;;;;4972244;28;20084;-52
2022/04/30 09:22:35;;;;;;;8.38;4.20;;;12.60;90.90;;;;;;4954196;28;20050;-48
2022/04/30 09:25:03;;;;;;;8.07;3.35;;;12.50;90.30;;;;;;4972108;28;20049;-52
2022/04/30 09:27:29;;;;;;;8.30;3.92;;;12.60;90.40;;;;;;4954892;28;20046;-52
2022/04/30 09:29:55;;;;;;;5.22;3.70;;;12.60;89.40;;;;;;4971683;28;20057;-52
2022/04/30 09:32:28;;;;;;;4.95;3.20;;;12.70;88.70;;;;;;4956595;28;20051;-52
2022/04/30 09:37:52;;;;;;;4.95;2.60;;;12.70;86.90;;;;;;4972289;28;20134;-51
2022/04/30 09:40:20;;;;;;;3.95;2.67;;;12.70;85.80;;;;;;4971916;28;20054;-49
2022/04/30 09:42:46;;;;;;;6.43;3.97;;;12.60;83.40;;;;;;4972408;28;20496;-52
2022/04/30 09:45:42;;;;;;;9.48;4.70;;;12.50;85.00;;;;;;4954851;28;20069;-51
2022/04/30 09:53:56;;;;;;;6.63;3.67;;;12.00;91.60;;;;;;4972203;28;20038;-52
2022/04/30 09:56:39;;;;;;;9.13;3.50;;;11.90;92.50;;;;;;4954666;28;20053;-49
2022/04/30 09:59:13;;;;;;;5.55;3.08;;;11.80;93.20;;;;;;4971962;28;20043;-51
2022/04/30 10:01:43;;;;;;;6.57;3.17;;;11.80;92.70;;;;;;4971642;28;20442;-48
2022/04/30 10:04:17;;;;;;;8.23;3.75;;;11.70;92.40;;;;;;4960216;28;20043;-52
2022/04/30 10:06:48;;;;;;;6.32;3.50;;;11.60;93.10;;;;;;4971391;28;20046;-52
2022/04/30 10:09:21;;;;;;;7.57;4.23;;;11.60;94.00;;;;;;4971615;28;20149;-52
2022/04/30 10:12:31;;;;;;;7.72;4.22;;;11.50;94.30;;;;;;4971667;28;20104;-51
2022/04/30 10:15:25;;;;;;;7.00;3.92;;;11.50;94.50;;;;;;4970167;28;20086;-51
2022/04/30 10:17:56;;;;;;;8.20;4.03;;;11.40;94.50;;;;;;4971744;28;20093;-52
2022/04/30 10:20:29;;;;;;;5.53;3.63;;;11.40;94.90;;;;;;4971786;28;20224;-51
2022/04/30 10:22:55;;;;;;;;;;;11.40;95.00;;;;;;4972024;28;20101;-51
2022/04/30 10:25:41;;;;;;;5.75;3.30;;;11.40;94.70;;;;;;4971699;28;20017;-49
2022/04/30 10:28:17;;;;;;;5.35;3.28;;;11.50;94.90;;;;;;4971888;28;20393;-52
2022/04/30 10:30:44;;;;;;;7.57;3.40;;;11.50;93.80;;;;;;4971342;28;20090;-49
2022/04/30 10:33:10;;;;;;;6.35;3.22;;;11.50;93.60;;;;;;4970576;28;20046;-45
2022/04/30 10:35:43;;;;;;;7.22;3.33;;;11.50;92.70;;;;;;4970113;28;20045;-49
2022/04/30 10:38:21;;;;;;;8.02;3.75;;;11.60;92.50;;;;;;4971502;28;20050;-49
2022/04/30 10:40:49;;;;;;;6.75;3.95;;;11.60;91.90;;;;;;4971367;28;20038;-51
2022/04/30 10:43:35;;;;;;;5.95;3.30;;;11.70;92.50;;;;;;4971568;28;20046;-46
2022/04/30 10:46:13;;;;;;;6.45;3.42;;;11.80;92.10;;;;;;4971269;28;20046;-47
2022/04/30 10:48:39;;;;;;;6.70;3.60;;;11.80;91.50;;;;;;4971857;28;20047;-51
2022/04/30 10:51:07;;;;;;;6.55;3.10;;;11.90;91.10;;;;;;4971408;28;20097;-51
2022/04/30 10:53:35;;;;;;;7.20;3.47;;;11.90;90.50;;;;;;4971498;28;20060;-52
2022/04/30 10:56:02;;;;;;;5.05;3.10;;;12.00;90.40;;;;;;4954054;28;20105;-52
2022/04/30 10:58:30;;;;;;;7.55;3.38;;;12.10;89.80;;;;;;4971449;28;20035;-52
2022/04/30 11:00:56;;;;;;;7.97;3.40;;;12.20;88.90;;;;;;4971014;28;20038;-50
2022/04/30 11:03:28;;;;;;;6.55;3.50;;;12.30;87.40;;;;;;4971254;28;20502;-50
2022/04/30 11:05:55;;;;;;;5.57;3.47;;;12.30;87.20;;;;;;4970880;28;20396;-45
2022/04/30 11:08:21;;;;;;;7.75;4.00;;;12.40;86.60;;;;;;4971183;28;20100;-51
2022/04/30 11:10:51;;;;;;;6.38;3.60;;;12.50;85.00;;;;;;4970925;28;20528;-52
2022/04/30 11:13:17;;;;;;;7.72;3.53;;;12.50;84.50;;;;;;4970897;28;20038;-52
2022/04/30 11:15:42;;;;;;;6.35;3.22;;;12.50;84.40;;;;;;4969925;28;20168;-52
2022/04/30 11:18:08;;;;;;;6.82;3.05;;;12.50;83.50;;;;;;4953823;28;20380;-52
2022/04/30 11:20:34;;;;;;;5.75;2.97;;;12.60;83.50;;;;;;4970755;28;20078;-47
2022/04/30 11:23:00;;;;;;;5.50;3.05;;;12.70;82.50;;;;;;4971119;28;20049;-51
2022/04/30 11:25:33;;;;;;;6.28;2.92;;;12.70;82.00;;;;;;4953357;28;20122;-51
2022/04/30 11:27:59;;;;;;;4.28;2.92;;;12.80;81.00;;;;;;4975012;28;20129;-48
2022/04/30 11:30:25;;;;;;;5.72;3.25;;;12.90;80.70;;;;;;4974186;28;20473;-51
2022/04/30 11:32:51;;;;;;;4.80;3.10;;;12.90;79.80;;;;;;4974854;28;20055;-53
2022/04/30 11:35:17;;;;;;;7.55;3.65;;;12.90;78.40;;;;;;4974635;28;20043;-52
2022/04/30 11:37:43;;;;;;;6.82;3.90;;;12.90;78.60;;;;;;4974744;28;20050;-52
2022/04/30 11:40:10;;;;;;;7.30;3.13;;;13.00;78.10;;;;;;4974194;28;20563;-49
2022/04/30 11:42:36;;;;;;;4.25;3.00;;;13.00;77.50;;;;;;4974338;28;20035;-53
2022/04/30 11:45:02;;;;;;;6.15;2.95;;;12.90;75.90;;;;;;4974301;28;20045;-51
2022/04/30 11:47:28;;;;;;;4.05;2.72;;;12.90;75.60;;;;;;4974522;28;20559;-48
2022/04/30 11:50:08;;;;;;;5.22;3.10;;;13.00;75.10;;;;;;4957057;28;20047;-52
2022/04/30 11:52:35;;;;;;;6.28;3.08;;;12.90;74.40;;;;;;4974479;28;20057;-52
2022/04/30 11:55:05;;;;;;;4.13;2.70;;;12.90;75.30;;;;;;4973876;28;20086;-52
2022/04/30 11:57:33;;;;;;;5.85;2.83;;;13.00;74.90;;;;;;4974324;28;20089;-51
2022/04/30 11:59:59;;;;;;;6.28;2.63;;;13.00;74.80;;;;;;4974091;28;20136;-49
2022/04/30 12:02:28;;;;;;;6.50;2.88;;;13.10;75.80;;;;;;4974520;28;20106;-47
2022/04/30 12:04:53;;;;;;;7.93;3.05;;;13.10;74.50;;;;;;4973992;28;20061;-49
2022/04/30 12:07:19;;;;;;;6.18;3.20;;;13.10;74.80;;;;;;4974297;28;20488;-51
2022/04/30 12:09:51;;;;;;;5.10;2.60;;;13.10;74.70;;;;;;4973960;28;20512;-51
2022/04/30 12:12:23;;;;;;;5.40;2.20;;;13.20;73.30;;;;;;4974081;28;20208;-52
2022/04/30 12:14:54;;;;;;;5.32;2.55;;;13.20;70.60;;;;;;4973421;28;20178;-50
2022/04/30 12:17:30;;;;;;;5.43;2.40;;;13.20;71.30;;;;;;4973837;28;20054;-50
2022/04/30 12:25:33;;;;;;;4.85;2.88;;;13.20;70.10;;;;;;4973603;28;20058;-52
2022/04/30 12:28:02;;;;;;;4.05;2.25;;;13.20;69.30;;;;;;4973669;28;20101;-51
2022/04/30 12:30:28;;;;;;;7.15;3.40;;;13.20;68.80;;;;;;4973106;28;20130;-52
2022/04/30 12:33:04;;;;;;;6.72;2.30;;;13.20;68.70;;;;;;4973683;28;20136;-51
2022/04/30 12:35:35;;;;;;;4.22;2.15;;;13.30;67.90;;;;;;4973220;28;20069;-51
2022/04/30 12:38:04;;;;;;;4.95;2.50;;;13.30;65.40;;;;;;4972735;28;20046;-52
2022/04/30 12:40:29;;;;;;;4.40;2.60;;;13.40;67.20;;;;;;4956129;28;20054;-53
2022/04/30 12:42:55;;;;;;;4.45;2.15;;;13.40;67.50;;;;;;4956098;28;20050;-50
2022/04/30 12:45:21;;;;;;;5.57;2.38;;;13.40;67.10;;;;;;4955419;28;20034;-52
2022/04/30 12:47:49;;;;;;;3.88;2.42;;;13.50;66.50;;;;;;4956097;28;20066;-52
2022/04/30 12:50:15;;;;;;;5.53;2.80;;;13.50;66.30;;;;;;4973353;28;20054;-50
2022/04/30 12:52:40;;;;;;;3.22;1.92;;;13.40;67.10;;;;;;4973505;28;20260;-53
2022/04/30 12:55:06;;;;;;;4.43;2.28;;;13.50;66.90;;;;;;4956001;28;20506;-48
2022/04/30 12:57:32;;;;;;;6.75;3.08;;;13.50;66.70;;;;;;4973173;28;20046;-51
2022/04/30 12:59:57;;;;;;;5.53;2.70;;;13.50;66.00;;;;;;4973130;28;20070;-50
2022/04/30 13:02:23;;;;;;;6.97;3.03;;;13.50;67.20;;;;;;4972900;28;20614;-51
2022/04/30 13:04:51;;;;;;;4.93;2.63;;;13.50;66.80;;;;;;4973026;28;20145;-51
2022/04/30 13:07:18;;;;;;;3.20;1.77;;;13.40;66.60;;;;;;4955533;28;20046;-51
2022/04/30 13:15:12;;;;;;;5.65;2.33;;;13.40;65.60;;;;;;4972780;28;20566;-51
2022/04/30 13:17:38;;;;;;;4.78;2.65;;;13.40;66.00;;;;;;4939353;28;20126;-52
2022/04/30 13:20:05;;;;;;;4.68;2.47;;;13.40;65.70;;;;;;4973009;28;20054;-52
2022/04/30 13:22:31;;;;;;;4.40;2.40;;;13.40;66.00;;;;;;4972627;28;20050;-52
2022/04/30 13:24:57;;;;;;;5.35;2.38;;;13.40;66.30;;;;;;4972650;28;20053;-51
2022/04/30 13:27:23;;;;;;;5.20;2.78;;;13.40;66.80;;;;;;4972660;28;20047;-52
2022/04/30 13:29:49;;;;;;;4.97;2.97;;;13.40;67.00;;;;;;4972246;28;20043;-52
2022/04/30 13:32:14;;;;;;;6.60;3.05;;;13.40;66.90;;;;;;4972512;28;20484;-52
2022/04/30 13:34:40;;;;;;;5.70;2.65;;;13.30;66.60;;;;;;4954946;28;20050;-48
2022/04/30 13:37:05;;;;;;;6.45;2.25;;;13.30;66.40;;;;;;4970467;28;20500;-52
2022/04/30 13:39:32;;;;;;;4.13;2.30;;;13.30;66.10;;;;;;4971538;28;20089;-51